Terminal Aerodrome Forecast
Issued by NWS Pueblo, CO

Home | Current Version | Previous Version | Text Only | Print | Product List | Glossary On
Versions: 1 2 3 4 5 6 7 8 9 10 11 12 13 14 15 16 17 18 19 20 21 22 23 24 25 26 27 28 29 30 31 32 33
187
FTUS45 KPUB 141724
TAFCOS
TAF
KCOS 141724Z 1418/1518 14006KT P6SM BKN200
     FM141900 09006KT P6SM SCT090 BKN140
     FM142100 02007KT P6SM SCT080 BKN120
     FM150200 32005KT P6SM SCT150=

USA.gov is the U.S. government's official web portal to all federal, state and local government web resources and services.